Terminal Aerodrome Forecast
Issued by NWS

Home | Current Version | Previous Version | Text Only | Print | Product List | Glossary On
Versions: 1 2 3 4 5 6 7 8 9 10 11 12 13 14 15 16 17 18 19 20 21 22 23 24 25 26 27 28 29 30 31 32 33 34 35 36 37 38 39 40
000
FTUS42 KGSP 031536 AAB
TAFHKY
TAF AMD
KHKY 031536Z 0316/0412 20004KT P6SM -SHRA SCT009 OVC020
     FM031800 21008KT P6SM -SHRA VCTS OVC035CB
     FM040200 25007KT P6SM BKN050
     FM041000 24006KT P6SM BKN025=

USA.gov is the U.S. government's official web portal to all federal, state and local government web resources and services.